createdAt,value
2023-04-01T00:03:40.869Z,8.29
2023-04-01T00:07:44.031Z,8.28
2023-04-01T00:11:45.403Z,8.28
2023-04-01T00:15:47.097Z,8.27
2023-04-01T00:19:48.516Z,8.26
2023-04-01T00:23:51.405Z,8.32
2023-04-01T00:27:52.762Z,8.33
2023-04-01T00:31:54.172Z,8.34
2023-04-01T00:35:55.641Z,8.39
2023-04-01T00:39:58.560Z,8.40
2023-04-01T00:44:15.341Z,8.33
2023-04-01T00:48:18.322Z,8.33
2023-04-01T00:52:21.584Z,8.37
2023-04-01T00:56:26.646Z,8.41
2023-04-01T01:00:28.244Z,8.39
2023-04-01T01:04:30.750Z,8.32
2023-04-01T01:08:38.641Z,8.25
2023-04-01T01:12:45.793Z,8.30
2023-04-01T01:16:49.525Z,8.28
2023-04-01T01:21:05.826Z,8.27
2023-04-01T01:25:17.053Z,8.39
2023-04-01T01:29:30.221Z,8.34
2023-04-01T01:33:36.901Z,8.37
2023-04-01T01:37:40.563Z,8.38
2023-04-01T01:41:43.350Z,8.37
2023-04-01T01:45:47.370Z,8.30
2023-04-01T01:49:49.270Z,8.34
2023-04-01T01:53:51.996Z,8.32
2023-04-01T01:57:53.589Z,8.27
2023-04-01T02:01:56.706Z,8.28
2023-04-01T02:06:00.165Z,8.29
2023-04-01T02:10:02.966Z,8.29
2023-04-01T02:14:07.218Z,8.24
2023-04-01T02:18:08.946Z,8.22
2023-04-01T02:22:12.680Z,8.23
2023-04-01T02:26:15.749Z,8.22
2023-04-01T02:30:17.945Z,8.23
2023-04-01T02:34:20.070Z,8.23
2023-04-01T02:38:21.673Z,8.24
2023-04-01T02:42:24.455Z,8.22
2023-04-01T02:46:25.956Z,8.21
2023-04-01T02:50:27.343Z,8.18
2023-04-01T02:54:28.740Z,8.21
2023-04-01T02:58:31.472Z,8.17
2023-04-01T03:02:32.989Z,8.11
2023-04-01T03:06:34.478Z,8.17
2023-04-01T03:10:35.815Z,8.11
2023-04-01T03:14:38.566Z,8.08
2023-04-01T03:18:40.006Z,8.09
2023-04-01T03:22:43.090Z,8.06
2023-04-01T03:26:44.626Z,8.04
2023-04-01T03:30:47.350Z,8.09
2023-04-01T03:34:48.758Z,8.08
2023-04-01T03:38:50.194Z,8.05
2023-04-01T03:42:51.633Z,8.05
2023-04-01T03:46:54.454Z,8.03
2023-04-01T03:50:55.810Z,8.09
2023-04-01T03:54:57.183Z,8.10
2023-04-01T03:58:58.949Z,8.09
2023-04-01T04:03:01.757Z,8.08
2023-04-01T04:07:03.305Z,8.06
2023-04-01T04:11:04.667Z,8.07
2023-04-01T04:15:06.570Z,8.07
2023-04-01T04:19:09.453Z,8.11
2023-04-01T04:23:10.839Z,8.04
2023-04-01T04:27:12.250Z,8.09
2023-04-01T04:31:18.778Z,8.15
2023-04-01T04:35:21.520Z,8.17
2023-04-01T04:39:22.870Z,8.18
2023-04-01T04:43:24.272Z,8.22
2023-04-01T04:47:25.667Z,8.15
2023-04-01T04:51:28.427Z,8.05
2023-04-01T04:55:29.788Z,8.08
2023-04-01T04:59:31.818Z,8.09
2023-04-01T05:03:33.239Z,8.04
2023-04-01T05:07:36.005Z,8.09
2023-04-01T05:11:37.396Z,8.02
2023-04-01T05:15:38.746Z,8.04
2023-04-01T05:19:40.300Z,8.16
2023-04-01T05:23:43.359Z,8.15
2023-04-01T05:27:44.720Z,8.15
2023-04-01T05:31:46.158Z,8.23
2023-04-01T05:35:47.588Z,8.21
2023-04-01T05:39:50.358Z,8.25
2023-04-01T05:43:51.802Z,8.29
2023-04-01T05:47:53.317Z,8.32
2023-04-01T05:51:54.934Z,8.32
2023-04-01T05:55:57.654Z,8.38
2023-04-01T05:59:59.002Z,8.44
2023-04-01T06:04:00.596Z,8.55
2023-04-01T06:08:05.941Z,8.47
2023-04-01T06:12:30.547Z,8.49
2023-04-01T06:16:38.155Z,8.59
2023-04-01T06:20:44.055Z,8.62
2023-04-01T06:25:01.909Z,8.63
2023-04-01T06:29:20.200Z,8.67
2023-04-01T06:33:28.951Z,8.64
2023-04-01T06:37:47.853Z,8.77
2023-04-01T06:42:14.392Z,8.84
2023-04-01T06:46:20.751Z,8.95
2023-04-01T06:50:25.615Z,8.90
2023-04-01T06:54:30.695Z,8.88
2023-04-01T06:58:35.381Z,8.93
2023-04-01T07:02:40.194Z,8.96
2023-04-01T07:06:44.931Z,8.93
2023-04-01T07:10:48.043Z,9.21
2023-04-01T07:14:50.980Z,9.41
2023-04-01T07:18:55.337Z,9.72
2023-04-01T07:22:58.296Z,10.14
2023-04-01T07:27:00.192Z,10.14
2023-04-01T07:31:08.478Z,10.03
2023-04-01T07:35:18.244Z,10.10
2023-04-01T07:39:26.947Z,10.32
2023-04-01T07:43:42.104Z,10.00
2023-04-01T07:47:49.280Z,10.08
2023-04-01T07:51:57.061Z,10.22
2023-04-01T07:56:02.918Z,10.42
2023-04-01T08:00:05.957Z,10.62
2023-04-01T08:04:17.647Z,10.33
2023-04-01T08:08:25.018Z,10.27
2023-04-01T08:12:33.515Z,10.38
2023-04-01T08:16:39.459Z,10.55
2023-04-01T08:20:46.185Z,10.72
2023-04-01T08:24:49.587Z,10.97
2023-04-01T08:28:55.158Z,11.16
2023-04-01T08:32:57.711Z,11.15
2023-04-01T08:37:01.086Z,11.22
2023-04-01T08:41:10.360Z,11.62
2023-04-01T08:45:19.260Z,11.89
2023-04-01T08:49:27.941Z,12.07
2023-04-01T08:53:37.843Z,12.06
2023-04-01T08:57:47.006Z,11.98
2023-04-01T09:02:01.351Z,12.02
2023-04-01T09:06:13.493Z,12.06
2023-04-01T09:10:39.081Z,11.94
2023-04-01T09:14:51.855Z,11.79
2023-04-01T09:19:05.678Z,11.80
2023-04-01T09:23:15.021Z,12.01
2023-04-01T09:27:26.042Z,12.19
2023-04-01T09:31:40.547Z,12.01
2023-04-01T09:35:46.721Z,12.04
2023-04-01T09:39:56.687Z,11.98
2023-04-01T09:44:05.293Z,11.93
2023-04-01T09:48:16.289Z,11.74
2023-04-01T09:52:22.095Z,11.70
2023-04-01T09:56:42.765Z,11.35
2023-04-01T10:00:54.789Z,11.21
2023-04-01T10:05:26.383Z,11.32
2023-04-01T10:09:41.822Z,11.55
2023-04-01T10:14:07.958Z,11.60
2023-04-01T10:18:30.205Z,11.40
2023-04-01T10:22:40.079Z,11.76
2023-04-01T10:26:59.193Z,11.54
2023-04-01T10:31:15.489Z,11.41
2023-04-01T10:35:35.717Z,11.45
2023-04-01T10:39:58.314Z,11.86
2023-04-01T10:44:08.526Z,11.84
2023-04-01T10:48:24.233Z,11.66
2023-04-01T10:52:55.905Z,11.54
2023-04-01T10:56:59.552Z,11.66
2023-04-01T11:01:15.875Z,11.77
2023-04-01T11:05:27.992Z,11.69
2023-04-01T11:09:47.854Z,11.70
2023-04-01T11:14:19.233Z,12.10
2023-04-01T11:18:38.037Z,12.10
2023-04-01T11:22:52.647Z,11.96
2023-04-01T11:27:02.286Z,11.74
2023-04-01T11:31:11.959Z,11.50
2023-04-01T11:35:24.599Z,11.28
2023-04-01T11:39:31.085Z,10.75
2023-04-01T11:43:37.022Z,10.48
2023-04-01T11:47:49.647Z,10.57
2023-04-01T11:52:00.581Z,10.64
2023-04-01T11:56:14.275Z,10.55
2023-04-01T12:00:26.093Z,10.58
2023-04-01T12:04:45.374Z,10.39
2023-04-01T12:08:51.628Z,10.42
2023-04-01T12:13:01.607Z,10.58
2023-04-01T12:17:10.340Z,10.47
2023-04-01T12:21:18.629Z,10.68
2023-04-01T12:25:28.143Z,10.92
2023-04-01T12:29:47.062Z,11.08
2023-04-01T12:33:51.786Z,10.63
2023-04-01T12:38:05.238Z,10.69
2023-04-01T12:42:13.549Z,10.21
2023-04-01T12:46:21.182Z,10.15
2023-04-01T12:50:39.100Z,9.84
2023-04-01T12:55:01.572Z,9.77
2023-04-01T12:59:16.448Z,9.55
2023-04-01T13:03:33.875Z,9.44
2023-04-01T13:07:56.227Z,9.61
2023-04-01T13:12:08.433Z,9.79
2023-04-01T13:16:12.356Z,9.64
2023-04-01T13:20:21.218Z,9.85
2023-04-01T13:24:29.827Z,10.04
2023-04-01T13:28:34.469Z,10.03
2023-04-01T13:32:43.664Z,10.18
2023-04-01T13:36:51.761Z,10.14
2023-04-01T13:41:03.437Z,10.13
2023-04-01T13:45:13.370Z,9.99
2023-04-01T13:49:32.828Z,9.98
2023-04-01T13:53:57.883Z,10.13
2023-04-01T13:58:17.760Z,9.96
2023-04-01T14:02:34.053Z,10.00
2023-04-01T14:06:39.842Z,10.14
2023-04-01T14:10:43.990Z,10.28
2023-04-01T14:14:54.013Z,10.27
2023-04-01T14:19:09.342Z,10.34
2023-04-01T14:23:19.833Z,10.28
2023-04-01T14:27:28.829Z,10.06
2023-04-01T14:31:44.070Z,9.99
2023-04-01T14:35:52.105Z,9.74
2023-04-01T14:40:12.093Z,9.73
2023-04-01T14:44:38.119Z,9.67
2023-04-01T14:48:40.522Z,9.63
2023-04-01T14:52:47.472Z,9.71
2023-04-01T14:56:49.647Z,9.90
2023-04-01T15:00:56.079Z,9.84
2023-04-01T15:05:07.615Z,10.03
2023-04-01T15:09:15.127Z,10.09
2023-04-01T15:13:21.290Z,9.99
2023-04-01T15:17:35.929Z,10.09
2023-04-01T15:21:54.941Z,10.19
2023-04-01T15:26:12.894Z,10.07
2023-04-01T15:30:22.118Z,9.93
2023-04-01T15:34:30.435Z,9.98
2023-04-01T15:38:35.846Z,9.97
2023-04-01T15:42:48.631Z,9.99
2023-04-01T15:46:50.849Z,9.91
2023-04-01T15:51:09.856Z,9.88
2023-04-01T15:55:17.478Z,9.87
2023-04-01T15:59:33.071Z,9.88
2023-04-01T16:03:38.965Z,9.81
2023-04-01T16:07:44.385Z,9.87
2023-04-01T16:11:49.879Z,9.85
2023-04-01T16:15:58.987Z,9.79
2023-04-01T16:20:02.733Z,9.82
2023-04-01T16:24:06.905Z,9.97
2023-04-01T16:28:17.998Z,9.90
2023-04-01T16:32:27.130Z,9.80
2023-04-01T16:36:31.147Z,9.77
2023-04-01T16:40:41.709Z,9.66
2023-04-01T16:44:49.236Z,9.76
2023-04-01T16:49:01.062Z,9.75
2023-04-01T16:53:09.112Z,9.68
2023-04-01T16:57:18.455Z,9.69
2023-04-01T17:01:21.747Z,9.52
2023-04-01T17:05:35.675Z,9.57
2023-04-01T17:09:45.301Z,9.53
2023-04-01T17:13:47.833Z,9.43
2023-04-01T17:17:53.737Z,9.44
2023-04-01T17:21:59.566Z,9.45
2023-04-01T17:26:15.824Z,9.39
2023-04-01T17:30:26.213Z,9.37
2023-04-01T17:34:36.190Z,9.32
2023-04-01T17:38:50.918Z,9.29
2023-04-01T17:42:56.951Z,9.24
2023-04-01T17:47:11.248Z,9.16
2023-04-01T17:51:18.550Z,9.17
2023-04-01T17:55:33.647Z,9.14
2023-04-01T17:59:37.292Z,9.06
2023-04-01T18:03:55.151Z,9.01
2023-04-01T18:08:06.889Z,9.03
2023-04-01T18:12:15.650Z,9.05
2023-04-01T18:16:23.237Z,9.05
2023-04-01T18:20:35.162Z,8.99
2023-04-01T18:24:42.195Z,9.06
2023-04-01T18:28:55.703Z,9.05
2023-04-01T18:32:59.867Z,9.04
2023-04-01T18:37:13.132Z,9.09
2023-04-01T18:41:15.541Z,9.13
2023-04-01T18:45:21.703Z,9.08
2023-04-01T18:49:26.455Z,9.06
2023-04-01T18:53:30.154Z,9.14
2023-04-01T18:57:41.262Z,9.11
2023-04-01T19:01:49.485Z,9.19
2023-04-01T19:05:52.757Z,9.16
2023-04-01T19:09:54.553Z,9.18
2023-04-01T19:14:00.931Z,9.17
2023-04-01T19:18:15.161Z,9.18
2023-04-01T19:22:27.396Z,9.18
2023-04-01T19:26:31.210Z,9.14
2023-04-01T19:30:47.792Z,9.14
2023-04-01T19:34:57.984Z,9.14
2023-04-01T19:39:05.743Z,9.11
2023-04-01T19:43:11.527Z,9.12
2023-04-01T19:47:16.718Z,9.15
2023-04-01T19:51:24.999Z,9.08
2023-04-01T19:55:34.544Z,8.96
2023-04-01T19:59:39.300Z,8.92
2023-04-01T20:03:43.420Z,8.96
2023-04-01T20:07:49.432Z,8.90
2023-04-01T20:11:56.727Z,8.93
2023-04-01T20:16:02.153Z,8.90
2023-04-01T20:20:15.530Z,8.83
2023-04-01T20:24:23.077Z,8.91
2023-04-01T20:28:31.403Z,8.92
2023-04-01T20:32:44.313Z,8.89
2023-04-01T20:36:55.283Z,8.93
2023-04-01T20:41:03.049Z,8.93
2023-04-01T20:45:19.665Z,8.90
2023-04-01T20:49:34.613Z,8.90
2023-04-01T20:53:37.288Z,8.95
2023-04-01T20:57:44.396Z,8.89
2023-04-01T21:01:48.067Z,8.98
2023-04-01T21:05:58.381Z,8.94
2023-04-01T21:10:12.229Z,8.99
2023-04-01T21:14:28.485Z,8.95
2023-04-01T21:18:39.721Z,8.94
2023-04-01T21:22:46.269Z,8.91
2023-04-01T21:26:53.305Z,8.90
2023-04-01T21:31:10.258Z,9.00
2023-04-01T21:35:23.328Z,8.97
2023-04-01T21:39:32.297Z,9.09
2023-04-01T21:43:52.328Z,9.08
2023-04-01T21:48:23.842Z,9.13
2023-04-01T21:52:38.621Z,9.11
2023-04-01T21:56:54.968Z,8.98
2023-04-01T22:01:01.904Z,9.04
2023-04-01T22:05:06.632Z,9.03
2023-04-01T22:09:13.075Z,8.93
2023-04-01T22:13:18.319Z,8.91
2023-04-01T22:17:24.359Z,8.91
2023-04-01T22:21:28.318Z,8.96
2023-04-01T22:25:35.914Z,8.92
2023-04-01T22:29:42.782Z,8.83
2023-04-01T22:33:49.754Z,8.93
2023-04-01T22:37:54.924Z,8.91
2023-04-01T22:42:02.259Z,8.96
2023-04-01T22:46:27.201Z,8.95
2023-04-01T22:50:32.133Z,8.92
2023-04-01T22:54:35.546Z,8.90
2023-04-01T22:58:39.753Z,8.93
2023-04-01T23:02:43.434Z,8.92
2023-04-01T23:06:47.318Z,8.89
2023-04-01T23:10:52.303Z,8.86
2023-04-01T23:14:57.165Z,8.94
2023-04-01T23:19:02.130Z,8.99
2023-04-01T23:23:12.728Z,8.96
2023-04-01T23:27:18.936Z,8.95
2023-04-01T23:31:29.929Z,8.96
2023-04-01T23:35:31.404Z,8.89
2023-04-01T23:39:34.477Z,8.93
2023-04-01T23:43:37.775Z,8.86
2023-04-01T23:47:41.243Z,8.91
2023-04-01T23:51:50.720Z,8.95
2023-04-01T23:55:52.718Z,8.90
